sensor_id;sensor_type;location;lat;lon;timestamp;temperature;humidity
41628;DHT22;27321;50.816;6.054;2023-07-09T00:01:37;24.80;63.10
41628;DHT22;27321;50.816;6.054;2023-07-09T00:04:38;24.80;63.20
41628;DHT22;27321;50.816;6.054;2023-07-09T00:07:39;24.80;63.30
41628;DHT22;27321;50.816;6.054;2023-07-09T00:10:41;24.70;63.30
41628;DHT22;27321;50.816;6.054;2023-07-09T00:13:42;24.70;63.40
41628;DHT22;27321;50.816;6.054;2023-07-09T00:16:44;24.70;63.40
41628;DHT22;27321;50.816;6.054;2023-07-09T00:19:49;24.60;63.60
41628;DHT22;27321;50.816;6.054;2023-07-09T00:22:49;24.60;63.80
41628;DHT22;27321;50.816;6.054;2023-07-09T00:25:52;24.60;63.90
41628;DHT22;27321;50.816;6.054;2023-07-09T00:28:53;24.60;64.10
41628;DHT22;27321;50.816;6.054;2023-07-09T00:31:54;24.60;64.30
41628;DHT22;27321;50.816;6.054;2023-07-09T00:34:55;24.50;64.20
41628;DHT22;27321;50.816;6.054;2023-07-09T00:37:56;24.50;64.30
41628;DHT22;27321;50.816;6.054;2023-07-09T00:44:28;24.40;64.60
41628;DHT22;27321;50.816;6.054;2023-07-09T00:50:52;24.30;64.80
41628;DHT22;27321;50.816;6.054;2023-07-09T00:53:57;24.30;64.80
41628;DHT22;27321;50.816;6.054;2023-07-09T00:57:04;24.20;65.10
41628;DHT22;27321;50.816;6.054;2023-07-09T01:00:13;24.20;65.20
41628;DHT22;27321;50.816;6.054;2023-07-09T01:03:35;24.20;65.40
41628;DHT22;27321;50.816;6.054;2023-07-09T01:06:49;24.20;65.60
41628;DHT22;27321;50.816;6.054;2023-07-09T01:09:51;24.10;65.70
41628;DHT22;27321;50.816;6.054;2023-07-09T01:12:52;24.10;65.70
41628;DHT22;27321;50.816;6.054;2023-07-09T01:15:54;24.00;65.90
41628;DHT22;27321;50.816;6.054;2023-07-09T01:18:56;24.00;66.10
41628;DHT22;27321;50.816;6.054;2023-07-09T01:21:59;23.90;66.40
41628;DHT22;27321;50.816;6.054;2023-07-09T01:25:06;23.90;66.50
41628;DHT22;27321;50.816;6.054;2023-07-09T01:28:08;23.90;66.40
41628;DHT22;27321;50.816;6.054;2023-07-09T01:31:09;23.90;66.50
41628;DHT22;27321;50.816;6.054;2023-07-09T01:34:12;23.90;66.80
41628;DHT22;27321;50.816;6.054;2023-07-09T01:37:17;23.80;66.80
41628;DHT22;27321;50.816;6.054;2023-07-09T01:40:24;23.80;66.70
41628;DHT22;27321;50.816;6.054;2023-07-09T01:43:28;23.70;66.90
41628;DHT22;27321;50.816;6.054;2023-07-09T01:46:30;23.70;67.00
41628;DHT22;27321;50.816;6.054;2023-07-09T01:49:31;23.70;66.90
41628;DHT22;27321;50.816;6.054;2023-07-09T01:52:34;23.60;67.00
41628;DHT22;27321;50.816;6.054;2023-07-09T01:55:36;23.60;67.10
41628;DHT22;27321;50.816;6.054;2023-07-09T01:58:37;23.60;67.20
41628;DHT22;27321;50.816;6.054;2023-07-09T02:01:43;23.60;67.20
41628;DHT22;27321;50.816;6.054;2023-07-09T02:04:49;23.60;67.10
41628;DHT22;27321;50.816;6.054;2023-07-09T02:07:52;23.60;67.40
41628;DHT22;27321;50.816;6.054;2023-07-09T02:10:56;23.50;67.40
41628;DHT22;27321;50.816;6.054;2023-07-09T02:13:58;23.60;67.40
41628;DHT22;27321;50.816;6.054;2023-07-09T02:16:59;23.60;67.40
41628;DHT22;27321;50.816;6.054;2023-07-09T02:20:00;23.60;67.50
41628;DHT22;27321;50.816;6.054;2023-07-09T02:23:02;23.50;67.50
41628;DHT22;27321;50.816;6.054;2023-07-09T02:26:05;23.60;67.50
41628;DHT22;27321;50.816;6.054;2023-07-09T02:29:06;23.50;67.60
41628;DHT22;27321;50.816;6.054;2023-07-09T02:32:07;23.50;67.70
41628;DHT22;27321;50.816;6.054;2023-07-09T02:35:09;23.50;67.40
41628;DHT22;27321;50.816;6.054;2023-07-09T02:38:10;23.50;67.40
41628;DHT22;27321;50.816;6.054;2023-07-09T02:41:11;23.50;67.40
41628;DHT22;27321;50.816;6.054;2023-07-09T02:44:12;23.40;67.40
41628;DHT22;27321;50.816;6.054;2023-07-09T02:47:14;23.40;67.40
41628;DHT22;27321;50.816;6.054;2023-07-09T02:50:16;23.40;67.20
41628;DHT22;27321;50.816;6.054;2023-07-09T02:53:17;23.40;67.30
41628;DHT22;27321;50.816;6.054;2023-07-09T02:56:18;23.40;67.10
41628;DHT22;27321;50.816;6.054;2023-07-09T02:59:19;23.30;67.20
41628;DHT22;27321;50.816;6.054;2023-07-09T03:02:20;23.30;67.20
41628;DHT22;27321;50.816;6.054;2023-07-09T03:05:21;23.30;67.10
41628;DHT22;27321;50.816;6.054;2023-07-09T03:08:22;23.30;67.20
41628;DHT22;27321;50.816;6.054;2023-07-09T03:11:23;23.30;67.20
41628;DHT22;27321;50.816;6.054;2023-07-09T03:14:24;23.20;67.40
41628;DHT22;27321;50.816;6.054;2023-07-09T03:17:25;23.20;67.40
41628;DHT22;27321;50.816;6.054;2023-07-09T03:20:26;23.20;67.60
41628;DHT22;27321;50.816;6.054;2023-07-09T03:23:27;23.10;67.60
41628;DHT22;27321;50.816;6.054;2023-07-09T03:26:28;23.10;67.70
41628;DHT22;27321;50.816;6.054;2023-07-09T03:29:29;23.00;67.80
41628;DHT22;27321;50.816;6.054;2023-07-09T03:32:30;23.00;68.00
41628;DHT22;27321;50.816;6.054;2023-07-09T03:35:31;23.00;68.00
41628;DHT22;27321;50.816;6.054;2023-07-09T03:38:32;23.00;68.10
41628;DHT22;27321;50.816;6.054;2023-07-09T03:41:33;23.00;68.10
41628;DHT22;27321;50.816;6.054;2023-07-09T03:44:34;22.90;67.90
41628;DHT22;27321;50.816;6.054;2023-07-09T03:47:36;22.90;68.00
41628;DHT22;27321;50.816;6.054;2023-07-09T03:50:37;22.90;68.20
41628;DHT22;27321;50.816;6.054;2023-07-09T03:53:38;22.90;68.20
41628;DHT22;27321;50.816;6.054;2023-07-09T03:56:39;22.90;68.30
41628;DHT22;27321;50.816;6.054;2023-07-09T03:59:40;22.90;68.30
41628;DHT22;27321;50.816;6.054;2023-07-09T04:02:41;22.90;68.40
41628;DHT22;27321;50.816;6.054;2023-07-09T04:05:44;22.90;68.40
41628;DHT22;27321;50.816;6.054;2023-07-09T04:08:45;22.90;68.30
41628;DHT22;27321;50.816;6.054;2023-07-09T04:11:45;22.90;68.10
41628;DHT22;27321;50.816;6.054;2023-07-09T04:14:46;23.00;68.00
41628;DHT22;27321;50.816;6.054;2023-07-09T04:17:47;22.90;68.10
41628;DHT22;27321;50.816;6.054;2023-07-09T04:20:49;22.90;68.00
41628;DHT22;27321;50.816;6.054;2023-07-09T04:23:50;23.00;68.20
41628;DHT22;27321;50.816;6.054;2023-07-09T04:26:51;23.00;68.20
41628;DHT22;27321;50.816;6.054;2023-07-09T04:29:57;23.00;68.30
41628;DHT22;27321;50.816;6.054;2023-07-09T04:32:57;23.00;68.30
41628;DHT22;27321;50.816;6.054;2023-07-09T04:35:58;23.00;68.50
41628;DHT22;27321;50.816;6.054;2023-07-09T04:38:59;23.10;68.60
41628;DHT22;27321;50.816;6.054;2023-07-09T04:42:00;23.10;68.60
41628;DHT22;27321;50.816;6.054;2023-07-09T04:45:01;23.10;68.60
41628;DHT22;27321;50.816;6.054;2023-07-09T04:48:03;23.10;68.60
41628;DHT22;27321;50.816;6.054;2023-07-09T04:51:04;23.10;68.50
41628;DHT22;27321;50.816;6.054;2023-07-09T04:54:05;23.10;68.70
41628;DHT22;27321;50.816;6.054;2023-07-09T04:57:06;23.20;68.70
41628;DHT22;27321;50.816;6.054;2023-07-09T05:00:08;23.30;68.80
41628;DHT22;27321;50.816;6.054;2023-07-09T05:03:09;23.30;68.90
41628;DHT22;27321;50.816;6.054;2023-07-09T05:06:10;23.50;69.00
41628;DHT22;27321;50.816;6.054;2023-07-09T05:09:11;23.50;69.00
41628;DHT22;27321;50.816;6.054;2023-07-09T05:12:12;23.60;68.90
41628;DHT22;27321;50.816;6.054;2023-07-09T05:15:12;23.60;68.80
41628;DHT22;27321;50.816;6.054;2023-07-09T05:18:14;23.70;68.70
41628;DHT22;27321;50.816;6.054;2023-07-09T05:21:16;23.80;68.50
41628;DHT22;27321;50.816;6.054;2023-07-09T05:24:16;23.90;68.40
41628;DHT22;27321;50.816;6.054;2023-07-09T05:27:17;23.90;68.50
41628;DHT22;27321;50.816;6.054;2023-07-09T05:30:19;24.00;68.50
41628;DHT22;27321;50.816;6.054;2023-07-09T05:33:21;24.00;68.60
41628;DHT22;27321;50.816;6.054;2023-07-09T05:36:22;24.10;68.80
41628;DHT22;27321;50.816;6.054;2023-07-09T05:39:23;24.10;68.40
41628;DHT22;27321;50.816;6.054;2023-07-09T05:42:24;24.20;67.80
41628;DHT22;27321;50.816;6.054;2023-07-09T05:45:25;24.30;67.20
41628;DHT22;27321;50.816;6.054;2023-07-09T05:48:27;24.30;67.10
41628;DHT22;27321;50.816;6.054;2023-07-09T05:51:28;24.40;67.10
41628;DHT22;27321;50.816;6.054;2023-07-09T05:54:28;24.50;67.00
41628;DHT22;27321;50.816;6.054;2023-07-09T05:57:29;24.50;66.60
41628;DHT22;27321;50.816;6.054;2023-07-09T06:00:30;24.50;66.20
41628;DHT22;27321;50.816;6.054;2023-07-09T06:03:31;24.60;66.00
41628;DHT22;27321;50.816;6.054;2023-07-09T06:06:34;24.60;66.00
41628;DHT22;27321;50.816;6.054;2023-07-09T06:09:35;24.70;65.90
41628;DHT22;27321;50.816;6.054;2023-07-09T06:12:36;24.80;65.60
41628;DHT22;27321;50.816;6.054;2023-07-09T06:15:37;24.80;65.70
41628;DHT22;27321;50.816;6.054;2023-07-09T06:18:38;24.90;65.80
41628;DHT22;27321;50.816;6.054;2023-07-09T06:21:39;25.00;65.60
41628;DHT22;27321;50.816;6.054;2023-07-09T06:24:41;25.00;65.60
41628;DHT22;27321;50.816;6.054;2023-07-09T06:27:41;25.10;65.20
41628;DHT22;27321;50.816;6.054;2023-07-09T06:30:43;25.10;65.10
41628;DHT22;27321;50.816;6.054;2023-07-09T06:33:45;25.10;64.90
41628;DHT22;27321;50.816;6.054;2023-07-09T06:36:45;25.20;64.80
41628;DHT22;27321;50.816;6.054;2023-07-09T06:39:46;25.30;64.60
41628;DHT22;27321;50.816;6.054;2023-07-09T06:42:47;25.30;64.70
41628;DHT22;27321;50.816;6.054;2023-07-09T06:46:00;25.40;64.90
41628;DHT22;27321;50.816;6.054;2023-07-09T06:49:02;25.50;64.60
41628;DHT22;27321;50.816;6.054;2023-07-09T06:52:06;25.50;64.60
41628;DHT22;27321;50.816;6.054;2023-07-09T06:55:07;25.50;63.90
41628;DHT22;27321;50.816;6.054;2023-07-09T06:58:08;25.60;63.50
41628;DHT22;27321;50.816;6.054;2023-07-09T07:01:09;25.60;63.20
41628;DHT22;27321;50.816;6.054;2023-07-09T07:04:11;25.70;63.30
41628;DHT22;27321;50.816;6.054;2023-07-09T07:07:12;25.80;62.90
41628;DHT22;27321;50.816;6.054;2023-07-09T07:10:13;25.80;63.10
41628;DHT22;27321;50.816;6.054;2023-07-09T07:13:14;25.90;62.10
41628;DHT22;27321;50.816;6.054;2023-07-09T07:16:15;26.00;61.90
41628;DHT22;27321;50.816;6.054;2023-07-09T07:19:15;26.00;61.90
41628;DHT22;27321;50.816;6.054;2023-07-09T07:22:16;26.00;62.20
41628;DHT22;27321;50.816;6.054;2023-07-09T07:25:17;26.10;60.90
41628;DHT22;27321;50.816;6.054;2023-07-09T07:28:18;26.20;59.90
41628;DHT22;27321;50.816;6.054;2023-07-09T07:31:19;26.20;60.30
41628;DHT22;27321;50.816;6.054;2023-07-09T07:34:20;26.30;59.40
41628;DHT22;27321;50.816;6.054;2023-07-09T07:37:21;26.30;58.50
41628;DHT22;27321;50.816;6.054;2023-07-09T07:40:22;26.40;58.20
41628;DHT22;27321;50.816;6.054;2023-07-09T07:43:23;26.40;56.70
41628;DHT22;27321;50.816;6.054;2023-07-09T07:46:24;26.50;57.20
41628;DHT22;27321;50.816;6.054;2023-07-09T07:49:25;26.60;57.30
41628;DHT22;27321;50.816;6.054;2023-07-09T07:52:28;26.70;57.00
41628;DHT22;27321;50.816;6.054;2023-07-09T07:55:29;26.80;57.20
41628;DHT22;27321;50.816;6.054;2023-07-09T07:58:31;26.80;57.00
41628;DHT22;27321;50.816;6.054;2023-07-09T08:01:32;26.90;56.90
41628;DHT22;27321;50.816;6.054;2023-07-09T08:04:35;27.00;56.30
41628;DHT22;27321;50.816;6.054;2023-07-09T08:07:36;27.00;56.30
41628;DHT22;27321;50.816;6.054;2023-07-09T08:10:37;27.00;56.40
41628;DHT22;27321;50.816;6.054;2023-07-09T08:13:38;27.10;56.40
41628;DHT22;27321;50.816;6.054;2023-07-09T08:16:39;27.20;55.70
41628;DHT22;27321;50.816;6.054;2023-07-09T08:19:47;27.20;55.60
41628;DHT22;27321;50.816;6.054;2023-07-09T08:22:48;27.30;54.80
41628;DHT22;27321;50.816;6.054;2023-07-09T08:25:56;27.40;55.00
41628;DHT22;27321;50.816;6.054;2023-07-09T08:28:58;27.50;53.50
41628;DHT22;27321;50.816;6.054;2023-07-09T08:31:59;27.50;53.50
41628;DHT22;27321;50.816;6.054;2023-07-09T08:35:00;27.60;53.40
41628;DHT22;27321;50.816;6.054;2023-07-09T08:38:01;27.60;53.70
41628;DHT22;27321;50.816;6.054;2023-07-09T08:51:15;27.90;52.80
41628;DHT22;27321;50.816;6.054;2023-07-09T08:54:25;28.00;52.50
41628;DHT22;27321;50.816;6.054;2023-07-09T08:57:36;28.00;52.30
41628;DHT22;27321;50.816;6.054;2023-07-09T09:00:51;28.00;52.60
41628;DHT22;27321;50.816;6.054;2023-07-09T09:10:46;28.20;52.00
41628;DHT22;27321;50.816;6.054;2023-07-09T09:13:52;28.30;51.10
41628;DHT22;27321;50.816;6.054;2023-07-09T09:16:56;28.30;51.40
41628;DHT22;27321;50.816;6.054;2023-07-09T09:20:02;28.40;51.80
41628;DHT22;27321;50.816;6.054;2023-07-09T09:23:14;28.50;51.50
41628;DHT22;27321;50.816;6.054;2023-07-09T09:26:26;28.50;50.90
41628;DHT22;27321;50.816;6.054;2023-07-09T09:29:32;28.50;50.80
41628;DHT22;27321;50.816;6.054;2023-07-09T09:32:43;28.50;49.90
41628;DHT22;27321;50.816;6.054;2023-07-09T09:35:48;28.60;49.60
41628;DHT22;27321;50.816;6.054;2023-07-09T09:38:49;28.60;49.10
41628;DHT22;27321;50.816;6.054;2023-07-09T09:41:56;28.70;49.40
41628;DHT22;27321;50.816;6.054;2023-07-09T09:44:58;28.70;49.60
41628;DHT22;27321;50.816;6.054;2023-07-09T09:48:13;28.80;49.00
41628;DHT22;27321;50.816;6.054;2023-07-09T09:51:27;28.90;47.50
41628;DHT22;27321;50.816;6.054;2023-07-09T09:54:28;29.00;47.50
41628;DHT22;27321;50.816;6.054;2023-07-09T09:57:32;29.10;46.40
41628;DHT22;27321;50.816;6.054;2023-07-09T10:00:32;29.10;47.60
41628;DHT22;27321;50.816;6.054;2023-07-09T10:03:38;29.10;47.00
41628;DHT22;27321;50.816;6.054;2023-07-09T10:06:43;29.20;47.50
41628;DHT22;27321;50.816;6.054;2023-07-09T10:09:54;29.20;46.70
41628;DHT22;27321;50.816;6.054;2023-07-09T10:13:32;29.30;46.60
41628;DHT22;27321;50.816;6.054;2023-07-09T10:16:40;29.30;46.70
41628;DHT22;27321;50.816;6.054;2023-07-09T10:19:56;29.40;47.50
41628;DHT22;27321;50.816;6.054;2023-07-09T10:23:27;29.50;46.40
41628;DHT22;27321;50.816;6.054;2023-07-09T10:26:35;29.60;45.60
41628;DHT22;27321;50.816;6.054;2023-07-09T10:33:46;29.70;46.80
41628;DHT22;27321;50.816;6.054;2023-07-09T10:40:36;29.80;47.20
41628;DHT22;27321;50.816;6.054;2023-07-09T10:43:50;29.80;47.00
41628;DHT22;27321;50.816;6.054;2023-07-09T10:47:11;29.90;46.20
41628;DHT22;27321;50.816;6.054;2023-07-09T10:50:33;29.90;46.20
41628;DHT22;27321;50.816;6.054;2023-07-09T10:53:44;30.00;46.60
41628;DHT22;27321;50.816;6.054;2023-07-09T10:56:50;30.10;46.70
41628;DHT22;27321;50.816;6.054;2023-07-09T10:59:54;30.20;46.20
41628;DHT22;27321;50.816;6.054;2023-07-09T11:03:04;30.50;43.30
41628;DHT22;27321;50.816;6.054;2023-07-09T11:06:17;30.60;44.10
41628;DHT22;27321;50.816;6.054;2023-07-09T11:09:32;30.60;44.70
41628;DHT22;27321;50.816;6.054;2023-07-09T11:12:41;30.60;44.20
41628;DHT22;27321;50.816;6.054;2023-07-09T11:15:48;30.70;43.90
41628;DHT22;27321;50.816;6.054;2023-07-09T11:18:55;30.80;43.30
41628;DHT22;27321;50.816;6.054;2023-07-09T11:22:15;30.90;42.90
41628;DHT22;27321;50.816;6.054;2023-07-09T11:25:43;30.90;43.10
41628;DHT22;27321;50.816;6.054;2023-07-09T11:28:50;31.00;44.10
41628;DHT22;27321;50.816;6.054;2023-07-09T11:31:52;31.00;43.10
41628;DHT22;27321;50.816;6.054;2023-07-09T11:34:53;31.10;43.40
41628;DHT22;27321;50.816;6.054;2023-07-09T11:37:55;31.10;42.80
41628;DHT22;27321;50.816;6.054;2023-07-09T11:40:56;31.20;42.50
41628;DHT22;27321;50.816;6.054;2023-07-09T11:44:04;31.20;42.60
41628;DHT22;27321;50.816;6.054;2023-07-09T11:47:28;31.30;42.00
41628;DHT22;27321;50.816;6.054;2023-07-09T11:50:38;31.30;41.70
41628;DHT22;27321;50.816;6.054;2023-07-09T11:53:46;31.40;40.80
41628;DHT22;27321;50.816;6.054;2023-07-09T11:56:59;31.50;42.50
41628;DHT22;27321;50.816;6.054;2023-07-09T12:00:02;31.40;42.90
41628;DHT22;27321;50.816;6.054;2023-07-09T12:03:34;31.30;43.40
41628;DHT22;27321;50.816;6.054;2023-07-09T12:06:38;31.10;43.80
41628;DHT22;27321;50.816;6.054;2023-07-09T12:09:46;31.00;44.50
41628;DHT22;27321;50.816;6.054;2023-07-09T12:12:59;30.90;44.20
41628;DHT22;27321;50.816;6.054;2023-07-09T12:16:00;30.70;44.60
41628;DHT22;27321;50.816;6.054;2023-07-09T12:19:01;30.50;45.30
41628;DHT22;27321;50.816;6.054;2023-07-09T12:22:09;30.40;46.20
41628;DHT22;27321;50.816;6.054;2023-07-09T12:25:27;30.30;51.40
41628;DHT22;27321;50.816;6.054;2023-07-09T12:28:30;30.00;64.60
41628;DHT22;27321;50.816;6.054;2023-07-09T12:31:31;29.50;70.20
41628;DHT22;27321;50.816;6.054;2023-07-09T12:34:32;29.20;72.50
41628;DHT22;27321;50.816;6.054;2023-07-09T12:37:33;29.00;73.10
41628;DHT22;27321;50.816;6.054;2023-07-09T12:40:34;28.60;67.30
41628;DHT22;27321;50.816;6.054;2023-07-09T12:43:35;28.30;65.20
41628;DHT22;27321;50.816;6.054;2023-07-09T12:46:36;28.00;66.00
41628;DHT22;27321;50.816;6.054;2023-07-09T12:49:38;27.70;64.60
41628;DHT22;27321;50.816;6.054;2023-07-09T12:52:48;27.50;63.60
41628;DHT22;27321;50.816;6.054;2023-07-09T12:55:55;27.30;63.30
41628;DHT22;27321;50.816;6.054;2023-07-09T12:58:57;27.30;64.80
41628;DHT22;27321;50.816;6.054;2023-07-09T13:05:23;27.50;62.90
41628;DHT22;27321;50.816;6.054;2023-07-09T13:08:27;27.60;64.70
41628;DHT22;27321;50.816;6.054;2023-07-09T13:11:35;27.70;64.80
41628;DHT22;27321;50.816;6.054;2023-07-09T13:14:37;27.60;62.80
41628;DHT22;27321;50.816;6.054;2023-07-09T13:17:41;27.50;63.40
41628;DHT22;27321;50.816;6.054;2023-07-09T13:20:45;27.40;62.50
41628;DHT22;27321;50.816;6.054;2023-07-09T13:23:52;27.10;64.00
41628;DHT22;27321;50.816;6.054;2023-07-09T13:26:53;26.80;75.20
41628;DHT22;27321;50.816;6.054;2023-07-09T13:29:54;26.50;74.40
41628;DHT22;27321;50.816;6.054;2023-07-09T13:32:55;26.30;78.10
41628;DHT22;27321;50.816;6.054;2023-07-09T13:35:55;26.40;79.30
41628;DHT22;27321;50.816;6.054;2023-07-09T13:38:56;26.40;78.70
41628;DHT22;27321;50.816;6.054;2023-07-09T13:41:57;26.50;79.40
41628;DHT22;27321;50.816;6.054;2023-07-09T13:44:58;26.30;76.30
41628;DHT22;27321;50.816;6.054;2023-07-09T13:47:59;26.10;75.40
41628;DHT22;27321;50.816;6.054;2023-07-09T13:51:00;26.00;76.30
41628;DHT22;27321;50.816;6.054;2023-07-09T13:54:05;25.80;76.40
41628;DHT22;27321;50.816;6.054;2023-07-09T13:57:17;25.50;77.30
41628;DHT22;27321;50.816;6.054;2023-07-09T14:00:19;25.20;79.30
41628;DHT22;27321;50.816;6.054;2023-07-09T14:03:24;25.00;80.20
41628;DHT22;27321;50.816;6.054;2023-07-09T14:06:27;25.00;81.00
41628;DHT22;27321;50.816;6.054;2023-07-09T14:09:28;24.90;80.20
41628;DHT22;27321;50.816;6.054;2023-07-09T14:12:29;24.80;80.40
41628;DHT22;27321;50.816;6.054;2023-07-09T14:15:31;24.80;80.70
41628;DHT22;27321;50.816;6.054;2023-07-09T14:18:32;24.70;79.80
41628;DHT22;27321;50.816;6.054;2023-07-09T14:21:32;24.70;80.20
41628;DHT22;27321;50.816;6.054;2023-07-09T14:24:33;24.80;80.00
41628;DHT22;27321;50.816;6.054;2023-07-09T14:27:34;24.90;79.60
41628;DHT22;27321;50.816;6.054;2023-07-09T14:30:35;24.90;79.40
41628;DHT22;27321;50.816;6.054;2023-07-09T14:33:36;24.90;79.30
41628;DHT22;27321;50.816;6.054;2023-07-09T14:36:37;25.00;79.60
41628;DHT22;27321;50.816;6.054;2023-07-09T14:39:38;25.10;79.40
41628;DHT22;27321;50.816;6.054;2023-07-09T14:42:39;25.10;79.00
41628;DHT22;27321;50.816;6.054;2023-07-09T14:45:41;25.20;79.10
41628;DHT22;27321;50.816;6.054;2023-07-09T14:48:42;25.20;78.70
41628;DHT22;27321;50.816;6.054;2023-07-09T14:51:44;25.40;78.00
41628;DHT22;27321;50.816;6.054;2023-07-09T14:54:45;25.50;78.60
41628;DHT22;27321;50.816;6.054;2023-07-09T14:57:48;25.60;78.40
41628;DHT22;27321;50.816;6.054;2023-07-09T15:00:49;25.60;78.10
41628;DHT22;27321;50.816;6.054;2023-07-09T15:03:50;25.70;78.10
41628;DHT22;27321;50.816;6.054;2023-07-09T15:06:52;25.70;78.00
41628;DHT22;27321;50.816;6.054;2023-07-09T15:09:54;25.80;78.00
41628;DHT22;27321;50.816;6.054;2023-07-09T15:12:55;25.80;77.30
41628;DHT22;27321;50.816;6.054;2023-07-09T15:15:57;25.90;77.60
41628;DHT22;27321;50.816;6.054;2023-07-09T15:18:59;26.00;78.00
41628;DHT22;27321;50.816;6.054;2023-07-09T15:22:00;25.90;77.80
41628;DHT22;27321;50.816;6.054;2023-07-09T15:25:01;25.90;77.60
41628;DHT22;27321;50.816;6.054;2023-07-09T15:28:02;26.00;77.80
41628;DHT22;27321;50.816;6.054;2023-07-09T15:31:03;26.00;77.30
41628;DHT22;27321;50.816;6.054;2023-07-09T15:34:04;26.00;77.30
41628;DHT22;27321;50.816;6.054;2023-07-09T15:37:12;26.00;76.80
41628;DHT22;27321;50.816;6.054;2023-07-09T15:40:21;26.00;76.70
41628;DHT22;27321;50.816;6.054;2023-07-09T15:43:24;26.00;75.20
41628;DHT22;27321;50.816;6.054;2023-07-09T15:46:25;26.10;75.30
41628;DHT22;27321;50.816;6.054;2023-07-09T15:49:26;26.20;75.10
41628;DHT22;27321;50.816;6.054;2023-07-09T15:52:27;26.30;75.80
41628;DHT22;27321;50.816;6.054;2023-07-09T15:55:28;26.50;77.00
41628;DHT22;27321;50.816;6.054;2023-07-09T15:58:41;26.80;78.40
41628;DHT22;27321;50.816;6.054;2023-07-09T16:01:43;26.90;76.50
41628;DHT22;27321;50.816;6.054;2023-07-09T16:04:44;26.90;74.80
41628;DHT22;27321;50.816;6.054;2023-07-09T16:07:45;26.80;72.30
41628;DHT22;27321;50.816;6.054;2023-07-09T16:10:46;26.70;70.40
41628;DHT22;27321;50.816;6.054;2023-07-09T16:13:48;26.60;70.80
41628;DHT22;27321;50.816;6.054;2023-07-09T16:16:51;26.60;71.10
41628;DHT22;27321;50.816;6.054;2023-07-09T16:19:53;26.50;71.50
41628;DHT22;27321;50.816;6.054;2023-07-09T16:22:56;26.50;72.40
41628;DHT22;27321;50.816;6.054;2023-07-09T16:25:58;26.50;72.30
41628;DHT22;27321;50.816;6.054;2023-07-09T16:28:59;26.50;72.00
41628;DHT22;27321;50.816;6.054;2023-07-09T16:32:00;26.50;72.50
41628;DHT22;27321;50.816;6.054;2023-07-09T16:35:01;26.70;73.60
41628;DHT22;27321;50.816;6.054;2023-07-09T16:38:02;27.00;73.90
41628;DHT22;27321;50.816;6.054;2023-07-09T16:41:03;27.10;72.60
41628;DHT22;27321;50.816;6.054;2023-07-09T16:44:10;27.40;73.50
41628;DHT22;27321;50.816;6.054;2023-07-09T16:47:16;27.60;70.70
41628;DHT22;27321;50.816;6.054;2023-07-09T16:50:24;27.60;70.10
41628;DHT22;27321;50.816;6.054;2023-07-09T16:53:25;27.80;68.90
41628;DHT22;27321;50.816;6.054;2023-07-09T16:56:26;27.90;69.50
41628;DHT22;27321;50.816;6.054;2023-07-09T16:59:28;28.00;68.10
41628;DHT22;27321;50.816;6.054;2023-07-09T17:02:31;28.10;66.70
41628;DHT22;27321;50.816;6.054;2023-07-09T17:05:33;28.10;67.50
41628;DHT22;27321;50.816;6.054;2023-07-09T17:08:35;28.10;67.70
41628;DHT22;27321;50.816;6.054;2023-07-09T17:11:36;28.10;68.30
41628;DHT22;27321;50.816;6.054;2023-07-09T17:14:38;28.10;66.70
41628;DHT22;27321;50.816;6.054;2023-07-09T17:17:39;27.90;67.30
41628;DHT22;27321;50.816;6.054;2023-07-09T17:20:40;27.90;68.20
41628;DHT22;27321;50.816;6.054;2023-07-09T17:23:41;28.00;67.10
41628;DHT22;27321;50.816;6.054;2023-07-09T17:26:42;28.00;67.20
41628;DHT22;27321;50.816;6.054;2023-07-09T17:29:43;28.00;67.10
41628;DHT22;27321;50.816;6.054;2023-07-09T17:32:45;27.90;67.20
41628;DHT22;27321;50.816;6.054;2023-07-09T17:35:48;27.90;67.20
41628;DHT22;27321;50.816;6.054;2023-07-09T17:38:49;27.80;66.90
41628;DHT22;27321;50.816;6.054;2023-07-09T17:41:51;27.70;67.00
41628;DHT22;27321;50.816;6.054;2023-07-09T17:44:52;27.60;67.20
41628;DHT22;27321;50.816;6.054;2023-07-09T17:47:53;27.50;67.70
41628;DHT22;27321;50.816;6.054;2023-07-09T17:50:54;27.40;68.20
41628;DHT22;27321;50.816;6.054;2023-07-09T17:53:55;27.20;69.00
41628;DHT22;27321;50.816;6.054;2023-07-09T17:56:56;27.10;69.20
41628;DHT22;27321;50.816;6.054;2023-07-09T17:59:58;27.00;69.50
41628;DHT22;27321;50.816;6.054;2023-07-09T18:03:01;27.00;69.80
41628;DHT22;27321;50.816;6.054;2023-07-09T18:06:12;26.80;70.10
41628;DHT22;27321;50.816;6.054;2023-07-09T18:09:19;26.70;70.30
41628;DHT22;27321;50.816;6.054;2023-07-09T18:12:23;26.60;70.60
41628;DHT22;27321;50.816;6.054;2023-07-09T18:15:26;26.50;70.80
41628;DHT22;27321;50.816;6.054;2023-07-09T18:18:27;26.50;71.10
41628;DHT22;27321;50.816;6.054;2023-07-09T18:21:28;26.40;71.20
41628;DHT22;27321;50.816;6.054;2023-07-09T18:24:29;26.50;71.30
41628;DHT22;27321;50.816;6.054;2023-07-09T18:27:35;26.50;71.60
41628;DHT22;27321;50.816;6.054;2023-07-09T18:30:38;26.50;71.40
41628;DHT22;27321;50.816;6.054;2023-07-09T18:33:39;26.50;71.50
41628;DHT22;27321;50.816;6.054;2023-07-09T18:36:40;26.50;71.80
41628;DHT22;27321;50.816;6.054;2023-07-09T18:39:42;26.50;71.80
41628;DHT22;27321;50.816;6.054;2023-07-09T18:42:44;26.50;71.80
41628;DHT22;27321;50.816;6.054;2023-07-09T18:45:47;26.50;71.90
41628;DHT22;27321;50.816;6.054;2023-07-09T18:48:50;26.50;72.30
41628;DHT22;27321;50.816;6.054;2023-07-09T18:51:50;26.30;72.60
41628;DHT22;27321;50.816;6.054;2023-07-09T18:54:54;26.20;73.20
41628;DHT22;27321;50.816;6.054;2023-07-09T18:57:56;26.30;73.30
41628;DHT22;27321;50.816;6.054;2023-07-09T19:00:59;26.40;73.30
41628;DHT22;27321;50.816;6.054;2023-07-09T19:04:04;26.40;73.40
41628;DHT22;27321;50.816;6.054;2023-07-09T19:07:14;26.40;73.50
41628;DHT22;27321;50.816;6.054;2023-07-09T19:10:20;26.30;73.80
41628;DHT22;27321;50.816;6.054;2023-07-09T19:13:22;26.20;74.10
41628;DHT22;27321;50.816;6.054;2023-07-09T19:16:24;26.20;74.40
41628;DHT22;27321;50.816;6.054;2023-07-09T19:19:28;26.10;74.70
41628;DHT22;27321;50.816;6.054;2023-07-09T19:22:29;26.00;74.70
41628;DHT22;27321;50.816;6.054;2023-07-09T19:25:30;26.00;74.80
41628;DHT22;27321;50.816;6.054;2023-07-09T19:28:31;26.00;74.90
41628;DHT22;27321;50.816;6.054;2023-07-09T19:31:32;25.90;75.00
41628;DHT22;27321;50.816;6.054;2023-07-09T19:34:35;25.80;75.40
41628;DHT22;27321;50.816;6.054;2023-07-09T19:37:38;25.80;75.40
41628;DHT22;27321;50.816;6.054;2023-07-09T19:40:39;25.80;75.50
41628;DHT22;27321;50.816;6.054;2023-07-09T19:43:41;25.80;75.60
41628;DHT22;27321;50.816;6.054;2023-07-09T19:46:42;25.60;75.60
41628;DHT22;27321;50.816;6.054;2023-07-09T19:49:43;25.60;75.70
41628;DHT22;27321;50.816;6.054;2023-07-09T19:52:45;25.50;75.80